Time;durP1;ratioP1;P1;durP2;ratioP2;P2;SDS_P1;SDS_P2;PMS_P1;PMS_P2;Temp;Humidity;BMP_temperature;BMP_pressure;BME280_temperature;BME280_humidity;BME280_pressure;Samples;Min_cycle;Max_cycle;Signal;HPM_P1;HPM_P2
2021/09/07 00:01:53;;;;;;;8.48;5.78;;;;;;;;;;5095662;28;20085;-73
2021/09/07 00:04:19;;;;;;;8.82;5.53;;;;;;;;;;5095869;28;20064;-73
2021/09/07 00:06:45;;;;;;;10.73;5.35;;;;;;;;;;5096012;28;20039;-72
2021/09/07 00:09:11;;;;;;;6.50;5.28;;;;;;;;;;5096113;28;20032;-73
2021/09/07 00:11:37;;;;;;;7.68;5.13;;;;;;;;;;5095653;28;20495;-72
2021/09/07 00:14:03;;;;;;;9.63;5.22;;;;;;;;;;5095901;28;20388;-72
2021/09/07 00:16:29;;;;;;;7.82;5.03;;;;;;;;;;5077637;28;20036;-72
2021/09/07 00:18:55;;;;;;;6.78;4.97;;;;;;;;;;5095686;28;20024;-73
2021/09/07 00:21:21;;;;;;;7.80;5.30;;;;;;;;;;5095706;28;20081;-73
2021/09/07 00:23:47;;;;;;;15.02;4.88;;;;;;;;;;5095645;28;20090;-73
2021/09/07 00:26:13;;;;;;;9.48;5.00;;;;;;;;;;5095556;28;20427;-73
2021/09/07 00:28:39;;;;;;;8.07;5.22;;;;;;;;;;5095441;28;20074;-72
2021/09/07 00:31:05;;;;;;;8.98;5.15;;;;;;;;;;5095237;28;20032;-73
2021/09/07 00:33:32;;;;;;;10.20;5.00;;;;;;;;;;5095263;28;20036;-73
2021/09/07 00:35:58;;;;;;;5.63;5.00;;;;;;;;;;5095639;28;20056;-73
2021/09/07 00:38:24;;;;;;;7.60;4.90;;;;;;;;;;5095310;28;20034;-73
2021/09/07 00:40:50;;;;;;;5.25;4.72;;;;;;;;;;5094019;28;20123;-73
2021/09/07 00:43:16;;;;;;;6.07;5.07;;;;;;;;;;5095245;28;20044;-73
2021/09/07 00:45:45;;;;;;;7.25;5.57;;;;;;;;;;5094976;28;20067;-73
2021/09/07 00:48:11;;;;;;;12.73;5.15;;;;;;;;;;5094975;28;20040;-72
2021/09/07 00:50:37;;;;;;;7.18;5.25;;;;;;;;;;5095141;28;20138;-73
2021/09/07 00:53:03;;;;;;;6.43;5.20;;;;;;;;;;5095030;28;20074;-72
2021/09/07 00:55:29;;;;;;;9.93;5.25;;;;;;;;;;5095111;28;20028;-73
2021/09/07 00:57:56;;;;;;;6.88;5.13;;;;;;;;;;5093590;28;20047;-73
2021/09/07 01:00:22;;;;;;;7.53;5.20;;;;;;;;;;5092301;28;20036;-73
2021/09/07 01:02:48;;;;;;;7.10;5.15;;;;;;;;;;5092122;28;20059;-73
2021/09/07 01:05:14;;;;;;;8.07;4.97;;;;;;;;;;5093405;28;20399;-72
2021/09/07 01:07:40;;;;;;;8.65;5.22;;;;;;;;;;5094738;28;20036;-73
2021/09/07 01:10:07;;;;;;;13.35;5.20;;;;;;;;;;5094519;28;20032;-72
2021/09/07 01:12:34;;;;;;;8.43;5.30;;;;;;;;;;5094514;28;20503;-72
2021/09/07 01:15:00;;;;;;;7.13;4.90;;;;;;;;;;5094544;28;20028;-73
2021/09/07 01:17:26;;;;;;;10.45;4.88;;;;;;;;;;5094389;28;20067;-73
2021/09/07 01:19:53;;;;;;;7.85;5.68;;;;;;;;;;5094305;28;20024;-73
2021/09/07 01:22:20;;;;;;;7.10;5.40;;;;;;;;;;5093873;28;20047;-73
2021/09/07 01:24:47;;;;;;;6.43;5.35;;;;;;;;;;5094322;28;20058;-73
2021/09/07 01:27:13;;;;;;;6.43;5.43;;;;;;;;;;5094028;28;20477;-74
2021/09/07 01:29:40;;;;;;;8.05;5.00;;;;;;;;;;5093921;28;20028;-73
2021/09/07 01:32:07;;;;;;;6.82;5.50;;;;;;;;;;5094253;28;20081;-76
2021/09/07 01:34:33;;;;;;;7.93;5.00;;;;;;;;;;5094204;28;20036;-73
2021/09/07 01:36:59;;;;;;;8.45;5.32;;;;;;;;;;5093828;28;20537;-73
2021/09/07 01:39:26;;;;;;;8.75;4.85;;;;;;;;;;5093974;28;20032;-73
2021/09/07 01:41:52;;;;;;;8.07;5.35;;;;;;;;;;5093950;28;20043;-73
2021/09/07 01:44:19;;;;;;;7.50;5.47;;;;;;;;;;5093606;28;20058;-73
2021/09/07 01:46:45;;;;;;;8.10;4.93;;;;;;;;;;5094039;28;20507;-72
2021/09/07 01:49:11;;;;;;;7.03;5.15;;;;;;;;;;5093792;28;20043;-73
2021/09/07 01:51:39;;;;;;;7.38;5.38;;;;;;;;;;5093223;28;20032;-73
2021/09/07 01:54:05;;;;;;;8.77;5.50;;;;;;;;;;5093573;28;20025;-73
2021/09/07 01:56:32;;;;;;;7.65;5.25;;;;;;;;;;5093946;28;20071;-73
2021/09/07 01:58:58;;;;;;;6.85;5.25;;;;;;;;;;5093364;28;20032;-73
2021/09/07 02:01:24;;;;;;;6.57;5.05;;;;;;;;;;5093758;28;20127;-72
2021/09/07 02:03:50;;;;;;;9.00;5.47;;;;;;;;;;5093698;28;20024;-73
2021/09/07 02:06:16;;;;;;;6.32;4.75;;;;;;;;;;5093720;28;20036;-73
2021/09/07 02:08:42;;;;;;;6.47;5.05;;;;;;;;;;5093154;28;20028;-73
2021/09/07 02:11:09;;;;;;;10.85;5.55;;;;;;;;;;5094200;28;20032;-73
2021/09/07 02:13:35;;;;;;;7.10;5.10;;;;;;;;;;5093612;28;20022;-72
2021/09/07 02:16:01;;;;;;;8.98;5.43;;;;;;;;;;5093679;28;20043;-72
2021/09/07 02:18:27;;;;;;;8.05;5.65;;;;;;;;;;5093444;28;20158;-72
2021/09/07 02:20:53;;;;;;;6.50;5.18;;;;;;;;;;5093381;28;20032;-73
2021/09/07 02:23:19;;;;;;;6.65;5.00;;;;;;;;;;5092771;28;20135;-72
2021/09/07 02:25:45;;;;;;;10.43;5.10;;;;;;;;;;5093406;28;20024;-73
2021/09/07 02:28:11;;;;;;;7.30;5.70;;;;;;;;;;5093271;28;20040;-73
2021/09/07 02:30:37;;;;;;;6.65;4.90;;;;;;;;;;5093353;28;20090;-73
2021/09/07 02:33:04;;;;;;;6.05;5.00;;;;;;;;;;5093160;28;20485;-73
2021/09/07 02:35:33;;;;;;;7.97;5.30;;;;;;;;;;5093079;28;20089;-73
2021/09/07 02:38:00;;;;;;;10.95;5.47;;;;;;;;;;5092789;28;20499;-73
2021/09/07 02:40:26;;;;;;;7.80;4.95;;;;;;;;;;5093155;28;20460;-73
2021/09/07 02:42:52;;;;;;;5.63;4.78;;;;;;;;;;5092755;28;20066;-73
2021/09/07 02:45:18;;;;;;;11.00;5.25;;;;;;;;;;5092784;28;20503;-72
2021/09/07 02:47:44;;;;;;;9.95;6.20;;;;;;;;;;5093304;28;20376;-73
2021/09/07 02:50:12;;;;;;;8.63;5.22;;;;;;;;;;5092928;28;20035;-73
2021/09/07 02:52:38;;;;;;;7.78;5.03;;;;;;;;;;5092812;28;20032;-73
2021/09/07 02:55:05;;;;;;;10.40;5.30;;;;;;;;;;5092881;28;20524;-73
2021/09/07 02:57:32;;;;;;;7.72;5.18;;;;;;;;;;5093143;28;20044;-73
2021/09/07 02:59:58;;;;;;;9.15;5.53;;;;;;;;;;5093083;28;20036;-73
2021/09/07 03:02:24;;;;;;;6.88;5.10;;;;;;;;;;5092311;28;20075;-73
2021/09/07 03:04:50;;;;;;;7.03;5.30;;;;;;;;;;5096252;28;20032;-73
2021/09/07 03:07:17;;;;;;;5.78;5.05;;;;;;;;;;5096547;28;20028;-73
2021/09/07 03:09:43;;;;;;;7.55;5.38;;;;;;;;;;5096920;28;20034;-72
2021/09/07 03:12:09;;;;;;;7.70;5.40;;;;;;;;;;5096779;28;20032;-73
2021/09/07 03:14:35;;;;;;;8.07;5.22;;;;;;;;;;5096869;28;20511;-73
2021/09/07 03:17:01;;;;;;;9.23;5.25;;;;;;;;;;5096721;28;20056;-72
2021/09/07 03:19:27;;;;;;;6.85;5.38;;;;;;;;;;5096772;28;20024;-73
2021/09/07 03:21:53;;;;;;;6.68;5.43;;;;;;;;;;5096783;28;20608;-72
2021/09/07 03:24:19;;;;;;;11.13;5.10;;;;;;;;;;5096949;28;20063;-73
2021/09/07 03:26:45;;;;;;;8.63;5.22;;;;;;;;;;5096790;28;20036;-73
2021/09/07 03:29:11;;;;;;;7.00;5.15;;;;;;;;;;5096827;28;20485;-74
2021/09/07 03:31:38;;;;;;;7.65;5.60;;;;;;;;;;5096695;28;20392;-74
2021/09/07 03:34:04;;;;;;;6.30;5.18;;;;;;;;;;5096672;28;20424;-73
2021/09/07 03:36:30;;;;;;;8.45;4.95;;;;;;;;;;5096555;28;20036;-72
2021/09/07 03:38:56;;;;;;;10.45;5.10;;;;;;;;;;5096726;28;20085;-73
2021/09/07 03:41:22;;;;;;;5.72;4.93;;;;;;;;;;5096592;28;20062;-72
2021/09/07 03:43:48;;;;;;;5.65;4.57;;;;;;;;;;5096363;28;20036;-74
2021/09/07 03:46:14;;;;;;;8.40;5.10;;;;;;;;;;5096325;28;20040;-72
2021/09/07 03:48:41;;;;;;;6.47;5.05;;;;;;;;;;5096280;28;20032;-76
2021/09/07 03:51:07;;;;;;;9.85;4.93;;;;;;;;;;5096475;28;20032;-73
2021/09/07 03:53:33;;;;;;;6.85;5.00;;;;;;;;;;5096014;28;20024;-73
2021/09/07 03:55:59;;;;;;;7.72;5.57;;;;;;;;;;5096248;28;20089;-73
2021/09/07 03:58:25;;;;;;;8.73;5.43;;;;;;;;;;5096096;28;20411;-73
2021/09/07 04:00:52;;;;;;;5.85;5.00;;;;;;;;;;5096008;28;20126;-73
2021/09/07 04:03:18;;;;;;;6.68;5.05;;;;;;;;;;5095667;28;20496;-73
2021/09/07 04:05:44;;;;;;;8.93;4.88;;;;;;;;;;5096121;28;20028;-73
2021/09/07 04:08:11;;;;;;;12.98;6.57;;;;;;;;;;5095930;28;20036;-73
2021/09/07 04:10:37;;;;;;;13.48;5.70;;;;;;;;;;5095802;28;20032;-73
2021/09/07 04:13:03;;;;;;;12.52;5.25;;;;;;;;;;5095761;28;20070;-73
2021/09/07 04:15:30;;;;;;;7.13;5.15;;;;;;;;;;5095422;28;20032;-73
2021/09/07 04:17:56;;;;;;;8.15;5.07;;;;;;;;;;5095639;28;20081;-73
2021/09/07 04:20:22;;;;;;;6.45;5.38;;;;;;;;;;5095641;28;20039;-73
2021/09/07 04:22:48;;;;;;;8.00;5.60;;;;;;;;;;5095465;28;20047;-76
2021/09/07 04:25:14;;;;;;;9.57;5.28;;;;;;;;;;5095716;28;20062;-72
2021/09/07 04:27:40;;;;;;;10.05;5.65;;;;;;;;;;5095767;28;20110;-73
2021/09/07 04:30:07;;;;;;;8.38;5.63;;;;;;;;;;5095409;28;20040;-73
2021/09/07 04:32:33;;;;;;;8.80;5.53;;;;;;;;;;5095535;28;20073;-72
2021/09/07 04:34:59;;;;;;;10.18;5.50;;;;;;;;;;5095304;28;20093;-73
2021/09/07 04:37:25;;;;;;;12.77;5.82;;;;;;;;;;5095614;28;20028;-73
2021/09/07 04:39:51;;;;;;;14.07;5.00;;;;;;;;;;5095310;28;20050;-73
2021/09/07 04:42:18;;;;;;;10.73;5.72;;;;;;;;;;5095051;28;20119;-73
2021/09/07 04:44:44;;;;;;;15.05;5.90;;;;;;;;;;5095158;28;20098;-73
2021/09/07 04:47:10;;;;;;;9.07;6.00;;;;;;;;;;5095159;28;20040;-72
2021/09/07 04:49:36;;;;;;;13.00;5.82;;;;;;;;;;5095117;28;20449;-73
2021/09/07 04:52:03;;;;;;;9.88;5.50;;;;;;;;;;5095237;28;20097;-73
2021/09/07 04:54:29;;;;;;;11.43;5.90;;;;;;;;;;5095316;28;20481;-73
2021/09/07 04:56:55;;;;;;;8.98;5.28;;;;;;;;;;5094735;28;20047;-73
2021/09/07 04:59:21;;;;;;;10.98;5.38;;;;;;;;;;5095199;28;20035;-73
2021/09/07 05:01:47;;;;;;;9.35;5.55;;;;;;;;;;5094763;28;20067;-73
2021/09/07 05:04:13;;;;;;;9.60;6.07;;;;;;;;;;5094836;28;20105;-73
2021/09/07 05:06:39;;;;;;;12.35;5.05;;;;;;;;;;5094588;28;20154;-73
2021/09/07 05:09:05;;;;;;;8.00;5.32;;;;;;;;;;5094769;28;20472;-73
2021/09/07 05:11:31;;;;;;;8.13;5.35;;;;;;;;;;5094710;28;20040;-73
2021/09/07 05:13:57;;;;;;;8.20;5.85;;;;;;;;;;5094422;28;20039;-72
2021/09/07 05:16:23;;;;;;;7.95;5.53;;;;;;;;;;5094627;28;20030;-73
2021/09/07 05:18:49;;;;;;;9.48;5.47;;;;;;;;;;5094449;28;20063;-73
2021/09/07 05:21:15;;;;;;;11.63;5.80;;;;;;;;;;5094282;28;20103;-74
2021/09/07 05:23:41;;;;;;;14.65;5.80;;;;;;;;;;5094660;28;20044;-73
2021/09/07 05:26:08;;;;;;;10.45;6.22;;;;;;;;;;5093753;28;20024;-74
2021/09/07 05:28:34;;;;;;;10.80;5.88;;;;;;;;;;5097208;28;20130;-73
2021/09/07 05:31:00;;;;;;;9.43;5.40;;;;;;;;;;5094250;28;20035;-73
2021/09/07 05:33:26;;;;;;;10.55;5.15;;;;;;;;;;5094304;28;20036;-73
2021/09/07 05:35:52;;;;;;;18.40;5.80;;;;;;;;;;5093850;28;20153;-73
2021/09/07 05:38:19;;;;;;;7.30;5.38;;;;;;;;;;5094022;28;20032;-73
2021/09/07 05:40:45;;;;;;;8.00;5.90;;;;;;;;;;5093190;28;20032;-73
2021/09/07 05:43:11;;;;;;;9.00;5.47;;;;;;;;;;5092339;28;20668;-73
2021/09/07 05:45:37;;;;;;;8.75;5.97;;;;;;;;;;5092610;28;20052;-73
2021/09/07 05:48:04;;;;;;;14.40;5.68;;;;;;;;;;5092490;28;20024;-73
2021/09/07 05:50:30;;;;;;;8.02;5.53;;;;;;;;;;5092782;28;20142;-73
2021/09/07 05:52:56;;;;;;;11.68;5.50;;;;;;;;;;5093128;28;20039;-73
2021/09/07 05:55:22;;;;;;;6.82;5.80;;;;;;;;;;5092480;28;20040;-73
2021/09/07 05:57:52;;;;;;;10.65;5.70;;;;;;;;;;5093894;28;20032;-73
2021/09/07 06:00:18;;;;;;;8.65;5.70;;;;;;;;;;5093125;28;20395;-71
2021/09/07 06:02:44;;;;;;;10.77;5.55;;;;;;;;;;5093633;28;20036;-70
2021/09/07 06:05:11;;;;;;;10.32;5.60;;;;;;;;;;5093403;28;20051;-70
2021/09/07 06:07:37;;;;;;;11.10;5.90;;;;;;;;;;5093275;28;20032;-70
2021/09/07 06:10:04;;;;;;;10.13;5.90;;;;;;;;;;5093410;28;20111;-69
2021/09/07 06:12:30;;;;;;;15.75;5.85;;;;;;;;;;5093165;28;20040;-71
2021/09/07 06:14:56;;;;;;;12.50;5.40;;;;;;;;;;5093228;28;20055;-69
2021/09/07 06:17:22;;;;;;;11.57;5.47;;;;;;;;;;5093523;28;20066;-69
2021/09/07 06:19:48;;;;;;;16.45;5.25;;;;;;;;;;5093467;28;20071;-69
2021/09/07 06:22:14;;;;;;;9.45;5.45;;;;;;;;;;5092345;28;20039;-71
2021/09/07 06:24:40;;;;;;;9.60;4.97;;;;;;;;;;5093214;28;20067;-70
2021/09/07 06:27:06;;;;;;;12.38;5.25;;;;;;;;;;5093323;28;20157;-70
2021/09/07 06:29:32;;;;;;;11.80;5.43;;;;;;;;;;5093503;28;20130;-70
2021/09/07 06:31:58;;;;;;;10.77;6.28;;;;;;;;;;5093236;28;20370;-70
2021/09/07 06:34:24;;;;;;;15.63;5.85;;;;;;;;;;5092712;28;20032;-70
2021/09/07 06:36:51;;;;;;;15.57;5.90;;;;;;;;;;5093314;28;20035;-70
2021/09/07 06:39:17;;;;;;;13.20;6.13;;;;;;;;;;5093330;28;20059;-71
2021/09/07 06:41:43;;;;;;;10.15;5.45;;;;;;;;;;5093293;28;20036;-70
2021/09/07 06:44:09;;;;;;;10.85;5.80;;;;;;;;;;5093090;28;20041;-74
2021/09/07 06:46:35;;;;;;;11.02;5.88;;;;;;;;;;5092816;28;20044;-74
2021/09/07 06:49:01;;;;;;;9.73;5.35;;;;;;;;;;5092983;28;20036;-74
2021/09/07 06:51:27;;;;;;;10.15;5.43;;;;;;;;;;5092822;28;20055;-75
2021/09/07 06:53:53;;;;;;;23.73;5.40;;;;;;;;;;5092626;28;20500;-74
2021/09/07 06:56:20;;;;;;;15.38;6.57;;;;;;;;;;5092654;28;20191;-74
2021/09/07 06:58:46;;;;;;;16.58;5.78;;;;;;;;;;5093122;28;20036;-74
2021/09/07 07:01:12;;;;;;;8.93;5.25;;;;;;;;;;5092909;28;20043;-75
2021/09/07 07:03:38;;;;;;;10.90;5.65;;;;;;;;;;5092909;28;20489;-75
2021/09/07 07:06:04;;;;;;;13.45;6.15;;;;;;;;;;5092885;28;20035;-74
2021/09/07 07:08:30;;;;;;;12.32;6.00;;;;;;;;;;5092110;28;20081;-73
2021/09/07 07:10:56;;;;;;;7.32;5.38;;;;;;;;;;5089664;28;20028;-74
2021/09/07 07:13:22;;;;;;;19.33;5.90;;;;;;;;;;5092308;28;20489;-74
2021/09/07 07:15:48;;;;;;;14.93;5.50;;;;;;;;;;5091116;28;20481;-75
2021/09/07 07:18:14;;;;;;;13.38;5.40;;;;;;;;;;5091894;28;20115;-75
2021/09/07 07:20:40;;;;;;;13.10;5.88;;;;;;;;;;5092969;28;20033;-74
2021/09/07 07:23:06;;;;;;;11.95;6.10;;;;;;;;;;5093117;28;20040;-74
2021/09/07 07:25:32;;;;;;;16.50;5.75;;;;;;;;;;5092759;28;20032;-75
2021/09/07 07:27:58;;;;;;;13.68;5.57;;;;;;;;;;5092963;28;20036;-75
2021/09/07 07:30:28;;;;;;;12.55;5.90;;;;;;;;;;5092798;28;20115;-74
2021/09/07 07:32:54;;;;;;;14.73;6.93;;;;;;;;;;5092783;28;20040;-75
2021/09/07 07:35:21;;;;;;;7.57;5.30;;;;;;;;;;5092661;28;20039;-74
2021/09/07 07:37:47;;;;;;;5.88;5.28;;;;;;;;;;5092639;28;20091;-74
2021/09/07 07:40:13;;;;;;;9.25;5.75;;;;;;;;;;5092605;28;20055;-75
2021/09/07 07:42:39;;;;;;;13.25;5.60;;;;;;;;;;5092654;28;20040;-74
2021/09/07 07:45:05;;;;;;;11.50;5.43;;;;;;;;;;5092522;28;20561;-74
2021/09/07 07:47:31;;;;;;;11.30;5.95;;;;;;;;;;5092715;28;20495;-74
2021/09/07 07:49:58;;;;;;;10.07;5.82;;;;;;;;;;5094380;28;20036;-75
2021/09/07 07:52:24;;;;;;;15.40;6.20;;;;;;;;;;5096460;28;20067;-75
2021/09/07 07:54:51;;;;;;;9.57;5.60;;;;;;;;;;5096387;28;20024;-74
2021/09/07 07:57:20;;;;;;;7.38;5.80;;;;;;;;;;5096278;28;20044;-74
2021/09/07 07:59:46;;;;;;;10.02;5.38;;;;;;;;;;5096070;28;20028;-74
2021/09/07 08:02:12;;;;;;;8.60;5.30;;;;;;;;;;5096293;28;20048;-75
2021/09/07 08:04:41;;;;;;;10.60;5.25;;;;;;;;;;5096203;28;20483;-75
2021/09/07 08:07:08;;;;;;;10.70;5.90;;;;;;;;;;5096100;28;20028;-74
2021/09/07 08:09:34;;;;;;;8.00;5.40;;;;;;;;;;5096040;28;20039;-77
2021/09/07 08:12:00;;;;;;;8.30;5.85;;;;;;;;;;5096164;28;20036;-75
2021/09/07 08:14:26;;;;;;;10.77;5.50;;;;;;;;;;5096136;28;20511;-75
2021/09/07 08:16:52;;;;;;;8.70;5.30;;;;;;;;;;5095868;28;20063;-76
2021/09/07 08:19:19;;;;;;;14.05;5.55;;;;;;;;;;5095741;28;20020;-75
2021/09/07 08:21:45;;;;;;;8.57;5.45;;;;;;;;;;5095941;28;20101;-75
2021/09/07 08:24:11;;;;;;;12.75;5.60;;;;;;;;;;5095817;28;20040;-75
2021/09/07 08:26:37;;;;;;;11.38;5.45;;;;;;;;;;5095702;28;20032;-74
2021/09/07 08:29:03;;;;;;;7.63;5.68;;;;;;;;;;5095588;28;20029;-74
2021/09/07 08:31:29;;;;;;;10.52;5.55;;;;;;;;;;5095512;28;20058;-74
2021/09/07 08:33:55;;;;;;;12.77;5.70;;;;;;;;;;5095466;28;20051;-75
2021/09/07 08:36:21;;;;;;;5.97;5.18;;;;;;;;;;5095468;28;20485;-75
2021/09/07 08:38:47;;;;;;;8.18;5.35;;;;;;;;;;5095411;28;20494;-74
2021/09/07 08:41:19;;;;;;;12.02;5.22;;;;;;;;;;5095477;28;20066;-74
2021/09/07 08:43:51;;;;;;;10.63;4.63;;;;;;;;;;5095334;28;20438;-74
2021/09/07 08:46:18;;;;;;;12.43;5.38;;;;;;;;;;5093089;28;20078;-75
2021/09/07 08:48:48;;;;;;;10.90;5.10;;;;;;;;;;5095349;28;20043;-74
2021/09/07 08:51:18;;;;;;;9.52;5.18;;;;;;;;;;5095390;28;20059;-76
2021/09/07 08:53:46;;;;;;;8.70;5.57;;;;;;;;;;5095355;28;20032;-74
2021/09/07 08:56:12;;;;;;;13.50;5.00;;;;;;;;;;5095462;28;20053;-74
2021/09/07 08:58:38;;;;;;;9.02;5.03;;;;;;;;;;5094892;28;20086;-75
2021/09/07 09:01:12;;;;;;;8.02;5.28;;;;;;;;;;5093932;28;20043;-74
2021/09/07 09:03:42;;;;;;;8.32;5.38;;;;;;;;;;5095170;28;20579;-75
2021/09/07 09:06:08;;;;;;;9.80;4.82;;;;;;;;;;5094969;28;20036;-74
2021/09/07 09:08:35;;;;;;;7.03;4.78;;;;;;;;;;5095229;28;20093;-75
2021/09/07 09:11:08;;;;;;;8.02;4.97;;;;;;;;;;5095096;28;20031;-75
2021/09/07 09:13:47;;;;;;;9.35;5.03;;;;;;;;;;5095085;28;20064;-74
2021/09/07 09:16:14;;;;;;;7.30;5.07;;;;;;;;;;5095027;28;20373;-75
2021/09/07 09:18:41;;;;;;;5.75;4.50;;;;;;;;;;5094807;28;20086;-74
2021/09/07 09:21:29;;;;;;;12.27;5.20;;;;;;;;;;5094866;28;20046;-75
2021/09/07 09:24:14;;;;;;;12.70;5.70;;;;;;;;;;5094849;28;20036;-75
2021/09/07 09:26:59;;;;;;;6.53;4.80;;;;;;;;;;5094626;28;20040;-75
2021/09/07 09:29:26;;;;;;;9.40;4.90;;;;;;;;;;5094651;28;20056;-75
2021/09/07 09:31:53;;;;;;;20.15;5.43;;;;;;;;;;5094439;28;20054;-75
2021/09/07 09:34:19;;;;;;;10.10;5.20;;;;;;;;;;5094306;28;20032;-74
2021/09/07 09:36:56;;;;;;;9.07;4.95;;;;;;;;;;5094442;28;20038;-75
2021/09/07 09:39:41;;;;;;;6.78;4.78;;;;;;;;;;5094181;28;20099;-74
2021/09/07 09:42:07;;;;;;;8.80;5.13;;;;;;;;;;5094066;28;20078;-76
2021/09/07 09:44:34;;;;;;;8.45;5.07;;;;;;;;;;5075820;28;20032;-74
2021/09/07 09:47:00;;;;;;;6.43;5.45;;;;;;;;;;5094063;28;20488;-74
2021/09/07 09:49:30;;;;;;;9.38;5.47;;;;;;;;;;5094003;28;20024;-76
2021/09/07 09:52:07;;;;;;;8.57;4.82;;;;;;;;;;5094208;28;20036;-74
2021/09/07 09:54:33;;;;;;;9.75;4.90;;;;;;;;;;5094291;28;20085;-75
2021/09/07 09:57:00;;;;;;;9.25;5.10;;;;;;;;;;5093990;28;20082;-76
2021/09/07 09:59:29;;;;;;;9.25;5.00;;;;;;;;;;5093707;28;20103;-75
2021/09/07 10:01:56;;;;;;;6.65;5.20;;;;;;;;;;5093843;28;20102;-73
2021/09/07 10:04:23;;;;;;;11.73;5.13;;;;;;;;;;5094039;28;20032;-75
2021/09/07 10:06:52;;;;;;;6.13;4.70;;;;;;;;;;5093906;28;20028;-74
2021/09/07 10:09:19;;;;;;;7.53;4.80;;;;;;;;;;5093733;28;20110;-75
2021/09/07 10:11:48;;;;;;;5.93;4.63;;;;;;;;;;5093637;28;20043;-74
2021/09/07 10:14:17;;;;;;;11.52;4.72;;;;;;;;;;5093649;28;20764;-74
2021/09/07 10:16:45;;;;;;;8.45;5.45;;;;;;;;;;5093920;28;20043;-75
2021/09/07 10:19:36;;;;;;;11.88;5.28;;;;;;;;;;5093577;28;20028;-74
2021/09/07 10:24:51;;;;;;;7.40;4.50;;;;;;;;;;5093805;28;20522;-75
2021/09/07 10:27:17;;;;;;;7.72;5.13;;;;;;;;;;5093747;28;20035;-74
2021/09/07 10:29:45;;;;;;;7.57;4.53;;;;;;;;;;5093710;28;20032;-76
2021/09/07 10:32:25;;;;;;;5.93;4.47;;;;;;;;;;5093249;28;20059;-74
2021/09/07 10:35:07;;;;;;;12.05;5.20;;;;;;;;;;5093313;28;20036;-73
2021/09/07 10:37:53;;;;;;;8.10;5.13;;;;;;;;;;5093286;28;20082;-73
2021/09/07 10:40:38;;;;;;;6.18;4.40;;;;;;;;;;5079392;28;20028;-74
2021/09/07 10:43:04;;;;;;;6.53;4.70;;;;;;;;;;5093183;28;20044;-76
2021/09/07 10:45:30;;;;;;;8.88;4.82;;;;;;;;;;5092925;28;20106;-74
2021/09/07 10:47:58;;;;;;;9.30;4.80;;;;;;;;;;5093069;28;20035;-75
2021/09/07 10:50:44;;;;;;;6.53;4.55;;;;;;;;;;5093054;28;20386;-76
2021/09/07 10:53:22;;;;;;;9.85;4.47;;;;;;;;;;5092873;28;20040;-75
2021/09/07 10:55:48;;;;;;;9.13;4.63;;;;;;;;;;5093141;28;20082;-75
2021/09/07 10:58:31;;;;;;;5.43;4.80;;;;;;;;;;5092942;28;20094;-74
2021/09/07 11:01:17;;;;;;;10.80;5.35;;;;;;;;;;5093104;28;20028;-75
2021/09/07 11:03:43;;;;;;;6.28;4.70;;;;;;;;;;5093136;28;20047;-75
2021/09/07 11:06:29;;;;;;;7.97;4.30;;;;;;;;;;5093043;28;20604;-74
2021/09/07 11:08:57;;;;;;;10.60;4.65;;;;;;;;;;5092618;28;20036;-74
2021/09/07 11:11:24;;;;;;;6.85;4.60;;;;;;;;;;5092992;28;20032;-75
2021/09/07 11:13:54;;;;;;;14.68;5.63;;;;;;;;;;5093074;28;20416;-76
2021/09/07 11:16:20;;;;;;;5.88;4.13;;;;;;;;;;5092926;28;20036;-75
2021/09/07 11:18:47;;;;;;;7.22;4.22;;;;;;;;;;5092765;28;20029;-75
2021/09/07 11:21:13;;;;;;;7.05;4.80;;;;;;;;;;5092709;28;20028;-75
2021/09/07 11:23:40;;;;;;;8.38;4.60;;;;;;;;;;5092658;28;20051;-75
2021/09/07 11:26:14;;;;;;;22.20;5.15;;;;;;;;;;5096809;28;20032;-75
2021/09/07 11:28:41;;;;;;;4.93;4.40;;;;;;;;;;5096895;28;20488;-73
2021/09/07 11:31:08;;;;;;;7.90;4.18;;;;;;;;;;5096825;28;20064;-75
2021/09/07 11:33:35;;;;;;;5.47;4.95;;;;;;;;;;5078682;28;20384;-73
2021/09/07 11:36:03;;;;;;;5.10;4.32;;;;;;;;;;5096842;28;20040;-73
2021/09/07 11:38:30;;;;;;;4.32;3.92;;;;;;;;;;5078580;28;20020;-78
2021/09/07 11:40:59;;;;;;;6.72;4.30;;;;;;;;;;5096521;28;20079;-74
2021/09/07 11:43:30;;;;;;;6.25;4.20;;;;;;;;;;5096487;28;20044;-76
2021/09/07 11:46:07;;;;;;;9.18;4.53;;;;;;;;;;5096341;28;20036;-73
2021/09/07 11:48:33;;;;;;;6.55;4.35;;;;;;;;;;5096594;28;20468;-74
2021/09/07 11:50:59;;;;;;;7.55;4.35;;;;;;;;;;5078194;28;20442;-75
2021/09/07 11:53:25;;;;;;;6.78;4.32;;;;;;;;;;5096212;28;20028;-76
2021/09/07 11:55:52;;;;;;;4.90;4.20;;;;;;;;;;5096240;28;20473;-74
2021/09/07 11:58:26;;;;;;;20.58;4.93;;;;;;;;;;5096303;28;20028;-74
2021/09/07 12:01:09;;;;;;;7.45;4.25;;;;;;;;;;5096344;28;20492;-74
2021/09/07 12:03:40;;;;;;;5.72;4.88;;;;;;;;;;5096128;28;20039;-73
2021/09/07 12:06:06;;;;;;;8.03;4.40;;;;;;;;;;5096236;28;20036;-78
2021/09/07 12:08:43;;;;;;;9.95;5.05;;;;;;;;;;5096121;28;20024;-73
2021/09/07 12:11:11;;;;;;;10.95;4.63;;;;;;;;;;5096142;28;20032;-73
2021/09/07 12:13:37;;;;;;;6.18;4.40;;;;;;;;;;5095957;28;20036;-74
2021/09/07 12:16:04;;;;;;;6.03;4.45;;;;;;;;;;5095933;28;20047;-74
2021/09/07 12:18:30;;;;;;;9.82;4.60;;;;;;;;;;5096122;28;20389;-75
2021/09/07 12:21:13;;;;;;;6.65;4.13;;;;;;;;;;5095851;28;20039;-75
2021/09/07 12:23:41;;;;;;;10.75;4.55;;;;;;;;;;5095997;28;20039;-73
2021/09/07 12:26:07;;;;;;;6.70;4.13;;;;;;;;;;5095493;28;20036;-74
2021/09/07 12:28:33;;;;;;;5.47;3.92;;;;;;;;;;5095777;28;20039;-74
2021/09/07 12:31:22;;;;;;;7.30;4.45;;;;;;;;;;5095828;28;20028;-74
2021/09/07 12:33:52;;;;;;;8.35;4.55;;;;;;;;;;5095679;28;20032;-75
2021/09/07 12:36:19;;;;;;;7.25;4.38;;;;;;;;;;5095599;28;20032;-73
2021/09/07 12:38:45;;;;;;;12.27;4.57;;;;;;;;;;5095372;28;20030;-74
2021/09/07 12:41:13;;;;;;;5.97;4.30;;;;;;;;;;5095599;28;20118;-74
2021/09/07 12:43:44;;;;;;;7.47;3.92;;;;;;;;;;5094433;28;20040;-75
2021/09/07 12:46:12;;;;;;;7.32;4.45;;;;;;;;;;5094269;28;20476;-73
2021/09/07 12:48:40;;;;;;;8.23;4.40;;;;;;;;;;5095073;28;20032;-72
2021/09/07 12:51:07;;;;;;;7.57;4.15;;;;;;;;;;5095158;28;20039;-72
2021/09/07 12:53:57;;;;;;;7.45;4.18;;;;;;;;;;5094575;28;20044;-72
2021/09/07 12:56:22;;;;;;;8.65;4.60;;;;;;;;;;5093080;28;20036;-71
2021/09/07 12:58:52;;;;;;;5.60;4.50;;;;;;;;;;5095083;28;20436;-72
2021/09/07 13:01:19;;;;;;;8.30;4.30;;;;;;;;;;5094728;28;20115;-73
2021/09/07 13:03:46;;;;;;;9.35;4.85;;;;;;;;;;5094783;28;20043;-72
2021/09/07 13:06:14;;;;;;;8.75;4.32;;;;;;;;;;5094553;28;20036;-72
2021/09/07 13:08:40;;;;;;;12.07;4.75;;;;;;;;;;5093848;28;20194;-72
2021/09/07 13:11:06;;;;;;;5.75;4.45;;;;;;;;;;5094430;28;20028;-75
2021/09/07 13:13:32;;;;;;;8.13;4.05;;;;;;;;;;5094707;28;20384;-72
2021/09/07 13:15:59;;;;;;;8.13;4.38;;;;;;;;;;5093952;28;20085;-71
2021/09/07 13:18:28;;;;;;;10.20;4.15;;;;;;;;;;5094519;28;20423;-72
2021/09/07 13:20:54;;;;;;;8.60;5.03;;;;;;;;;;5094197;28;20057;-71
2021/09/07 13:23:20;;;;;;;4.97;4.45;;;;;;;;;;5094342;28;20499;-71
2021/09/07 13:25:46;;;;;;;8.82;4.85;;;;;;;;;;5093934;28;20028;-74
2021/09/07 13:28:14;;;;;;;6.60;4.88;;;;;;;;;;5094690;28;20174;-71
2021/09/07 13:30:40;;;;;;;7.40;4.45;;;;;;;;;;5094416;28;20033;-71
2021/09/07 13:33:06;;;;;;;6.40;4.95;;;;;;;;;;5094082;28;20040;-71
2021/09/07 13:35:32;;;;;;;6.95;4.50;;;;;;;;;;5093829;28;20036;-71
2021/09/07 13:37:58;;;;;;;12.20;4.90;;;;;;;;;;5094361;28;20090;-71
2021/09/07 13:40:25;;;;;;;9.60;4.45;;;;;;;;;;5094483;28;20388;-71
2021/09/07 13:42:51;;;;;;;5.95;4.50;;;;;;;;;;5093992;28;20048;-71
2021/09/07 13:45:17;;;;;;;5.97;5.13;;;;;;;;;;5093118;28;20040;-71
2021/09/07 13:47:43;;;;;;;7.03;4.57;;;;;;;;;;5090990;28;20060;-71
2021/09/07 13:50:10;;;;;;;12.13;5.00;;;;;;;;;;5074120;28;20455;-71
2021/09/07 13:52:37;;;;;;;8.07;4.57;;;;;;;;;;5091062;28;20556;-72
2021/09/07 13:55:03;;;;;;;10.50;4.55;;;;;;;;;;5091350;28;20473;-71
2021/09/07 13:57:29;;;;;;;8.20;4.28;;;;;;;;;;5091667;28;20563;-72
2021/09/07 13:59:56;;;;;;;14.65;5.60;;;;;;;;;;5093344;28;20474;-72
2021/09/07 14:02:22;;;;;;;6.03;4.75;;;;;;;;;;5093366;28;20044;-72
2021/09/07 14:04:48;;;;;;;13.45;4.53;;;;;;;;;;5092422;28;20063;-72
2021/09/07 14:07:14;;;;;;;7.10;4.90;;;;;;;;;;5093358;28;20032;-72
2021/09/07 14:09:40;;;;;;;5.95;4.32;;;;;;;;;;5093873;28;20032;-72
2021/09/07 14:12:06;;;;;;;13.20;4.40;;;;;;;;;;5092913;28;20038;-72
2021/09/07 14:14:32;;;;;;;5.32;4.22;;;;;;;;;;5093191;28;20032;-72
2021/09/07 14:16:59;;;;;;;5.50;4.47;;;;;;;;;;5093612;28;20040;-72
2021/09/07 14:19:25;;;;;;;7.03;5.00;;;;;;;;;;5092714;28;20043;-72
2021/09/07 14:21:52;;;;;;;8.52;4.53;;;;;;;;;;5093101;28;20396;-72
2021/09/07 14:24:18;;;;;;;6.88;4.15;;;;;;;;;;5092900;28;20130;-72
2021/09/07 14:26:44;;;;;;;6.68;4.40;;;;;;;;;;5092997;28;20104;-73
2021/09/07 14:29:10;;;;;;;7.05;4.22;;;;;;;;;;5093272;28;20066;-73
2021/09/07 14:31:36;;;;;;;7.05;3.95;;;;;;;;;;5093086;28;20028;-72
2021/09/07 14:34:02;;;;;;;7.55;4.18;;;;;;;;;;5093141;28;20040;-72
2021/09/07 14:36:28;;;;;;;6.13;4.30;;;;;;;;;;5092976;28;20511;-72
2021/09/07 14:38:54;;;;;;;8.38;4.18;;;;;;;;;;5092771;28;20473;-72
2021/09/07 14:41:20;;;;;;;5.45;3.95;;;;;;;;;;5092523;28;20388;-72
2021/09/07 14:43:46;;;;;;;10.35;4.30;;;;;;;;;;5093255;28;20068;-72